sensor_id;sensor_type;location;lat;lon;timestamp;P1;durP1;ratioP1;P2;durP2;ratioP2
66189;SDS011;52992;52.084;5.412;2023-09-19T00:00:56;3.03;;;1.83;;
66189;SDS011;52992;52.084;5.412;2023-09-19T00:03:24;4.10;;;2.10;;
66189;SDS011;52992;52.084;5.412;2023-09-19T00:05:52;5.00;;;1.90;;
66189;SDS011;52992;52.084;5.412;2023-09-19T00:08:19;3.23;;;1.90;;
66189;SDS011;52992;52.084;5.412;2023-09-19T00:10:50;7.00;;;2.33;;
66189;SDS011;52992;52.084;5.412;2023-09-19T00:13:17;9.20;;;2.40;;
66189;SDS011;52992;52.084;5.412;2023-09-19T00:15:46;6.43;;;2.20;;
66189;SDS011;52992;52.084;5.412;2023-09-19T00:18:18;3.77;;;1.90;;
66189;SDS011;52992;52.084;5.412;2023-09-19T00:20:47;9.30;;;2.20;;
66189;SDS011;52992;52.084;5.412;2023-09-19T00:23:16;13.13;;;2.70;;
66189;SDS011;52992;52.084;5.412;2023-09-19T00:25:45;7.40;;;2.30;;
66189;SDS011;52992;52.084;5.412;2023-09-19T00:28:12;6.57;;;2.00;;
66189;SDS011;52992;52.084;5.412;2023-09-19T00:30:42;6.63;;;2.53;;
66189;SDS011;52992;52.084;5.412;2023-09-19T00:33:09;6.30;;;2.93;;
66189;SDS011;52992;52.084;5.412;2023-09-19T00:35:37;5.40;;;1.90;;
66189;SDS011;52992;52.084;5.412;2023-09-19T00:38:04;3.57;;;2.00;;
66189;SDS011;52992;52.084;5.412;2023-09-19T00:40:34;6.23;;;1.83;;
66189;SDS011;52992;52.084;5.412;2023-09-19T00:43:01;5.33;;;2.23;;
66189;SDS011;52992;52.084;5.412;2023-09-19T00:45:29;5.13;;;1.90;;
66189;SDS011;52992;52.084;5.412;2023-09-19T00:47:56;5.60;;;1.90;;
66189;SDS011;52992;52.084;5.412;2023-09-19T00:50:25;9.90;;;2.13;;
66189;SDS011;52992;52.084;5.412;2023-09-19T00:52:54;5.33;;;2.40;;
66189;SDS011;52992;52.084;5.412;2023-09-19T00:55:25;2.73;;;1.83;;
66189;SDS011;52992;52.084;5.412;2023-09-19T00:57:55;8.93;;;2.63;;
66189;SDS011;52992;52.084;5.412;2023-09-19T01:00:23;5.83;;;2.20;;
66189;SDS011;52992;52.084;5.412;2023-09-19T01:02:51;4.67;;;2.23;;
66189;SDS011;52992;52.084;5.412;2023-09-19T01:05:18;7.33;;;2.30;;
66189;SDS011;52992;52.084;5.412;2023-09-19T01:07:46;4.10;;;2.10;;
66189;SDS011;52992;52.084;5.412;2023-09-19T01:10:17;8.07;;;2.50;;
66189;SDS011;52992;52.084;5.412;2023-09-19T01:12:57;8.00;;;2.40;;
66189;SDS011;52992;52.084;5.412;2023-09-19T01:15:49;10.87;;;2.63;;
66189;SDS011;52992;52.084;5.412;2023-09-19T01:24:20;10.97;;;2.77;;
66189;SDS011;52992;52.084;5.412;2023-09-19T01:27:02;10.77;;;2.67;;
66189;SDS011;52992;52.084;5.412;2023-09-19T01:29:38;10.03;;;2.90;;
66189;SDS011;52992;52.084;5.412;2023-09-19T01:32:11;9.03;;;2.50;;
66189;SDS011;52992;52.084;5.412;2023-09-19T01:34:53;10.93;;;3.10;;
66189;SDS011;52992;52.084;5.412;2023-09-19T01:37:23;15.27;;;2.97;;
66189;SDS011;52992;52.084;5.412;2023-09-19T01:39:55;5.27;;;2.30;;
66189;SDS011;52992;52.084;5.412;2023-09-19T01:42:36;8.73;;;2.97;;
66189;SDS011;52992;52.084;5.412;2023-09-19T01:50:52;6.93;;;2.77;;
66189;SDS011;52992;52.084;5.412;2023-09-19T01:53:30;13.03;;;2.60;;
66189;SDS011;52992;52.084;5.412;2023-09-19T01:56:01;8.80;;;2.90;;
66189;SDS011;52992;52.084;5.412;2023-09-19T01:58:41;6.50;;;2.50;;
66189;SDS011;52992;52.084;5.412;2023-09-19T02:01:15;9.47;;;2.67;;
66189;SDS011;52992;52.084;5.412;2023-09-19T02:03:48;12.90;;;2.90;;
66189;SDS011;52992;52.084;5.412;2023-09-19T02:06:18;7.90;;;2.47;;
66189;SDS011;52992;52.084;5.412;2023-09-19T02:08:46;5.20;;;2.60;;
66189;SDS011;52992;52.084;5.412;2023-09-19T02:11:13;8.83;;;2.80;;
66189;SDS011;52992;52.084;5.412;2023-09-19T02:13:41;7.73;;;2.60;;
66189;SDS011;52992;52.084;5.412;2023-09-19T02:16:10;9.37;;;2.93;;
66189;SDS011;52992;52.084;5.412;2023-09-19T02:18:39;7.33;;;2.60;;
66189;SDS011;52992;52.084;5.412;2023-09-19T02:21:06;9.00;;;2.63;;
66189;SDS011;52992;52.084;5.412;2023-09-19T02:23:33;11.20;;;3.00;;
66189;SDS011;52992;52.084;5.412;2023-09-19T02:26:00;7.90;;;2.47;;
66189;SDS011;52992;52.084;5.412;2023-09-19T02:28:27;7.00;;;3.00;;
66189;SDS011;52992;52.084;5.412;2023-09-19T02:30:58;9.33;;;2.90;;
66189;SDS011;52992;52.084;5.412;2023-09-19T02:33:25;8.73;;;2.80;;
66189;SDS011;52992;52.084;5.412;2023-09-19T02:35:56;6.93;;;2.43;;
66189;SDS011;52992;52.084;5.412;2023-09-19T02:38:27;6.60;;;2.40;;
66189;SDS011;52992;52.084;5.412;2023-09-19T02:40:55;13.47;;;2.70;;
66189;SDS011;52992;52.084;5.412;2023-09-19T02:43:23;4.67;;;2.60;;
66189;SDS011;52992;52.084;5.412;2023-09-19T02:45:51;8.20;;;3.53;;
66189;SDS011;52992;52.084;5.412;2023-09-19T02:48:21;8.43;;;2.57;;
66189;SDS011;52992;52.084;5.412;2023-09-19T02:50:51;7.43;;;3.03;;
66189;SDS011;52992;52.084;5.412;2023-09-19T02:53:19;8.10;;;2.40;;
66189;SDS011;52992;52.084;5.412;2023-09-19T02:55:46;6.93;;;2.70;;
66189;SDS011;52992;52.084;5.412;2023-09-19T02:58:15;10.73;;;2.83;;
66189;SDS011;52992;52.084;5.412;2023-09-19T03:00:42;8.00;;;2.50;;
66189;SDS011;52992;52.084;5.412;2023-09-19T03:03:14;10.47;;;2.80;;
66189;SDS011;52992;52.084;5.412;2023-09-19T03:05:45;10.13;;;2.93;;
66189;SDS011;52992;52.084;5.412;2023-09-19T03:08:15;10.97;;;2.77;;
66189;SDS011;52992;52.084;5.412;2023-09-19T03:10:48;8.00;;;2.63;;
66189;SDS011;52992;52.084;5.412;2023-09-19T03:13:16;6.30;;;2.03;;
66189;SDS011;52992;52.084;5.412;2023-09-19T03:15:43;9.17;;;2.30;;
66189;SDS011;52992;52.084;5.412;2023-09-19T03:18:14;6.60;;;2.30;;
66189;SDS011;52992;52.084;5.412;2023-09-19T03:20:41;6.70;;;2.40;;
66189;SDS011;52992;52.084;5.412;2023-09-19T03:23:08;8.77;;;2.73;;
66189;SDS011;52992;52.084;5.412;2023-09-19T03:25:36;9.00;;;3.03;;
66189;SDS011;52992;52.084;5.412;2023-09-19T03:28:03;10.27;;;2.90;;
66189;SDS011;52992;52.084;5.412;2023-09-19T03:30:32;10.67;;;2.80;;
66189;SDS011;52992;52.084;5.412;2023-09-19T03:33:02;8.23;;;2.37;;
66189;SDS011;52992;52.084;5.412;2023-09-19T03:35:31;9.90;;;3.03;;
66189;SDS011;52992;52.084;5.412;2023-09-19T03:37:59;9.07;;;2.47;;
66189;SDS011;52992;52.084;5.412;2023-09-19T03:40:26;7.03;;;2.50;;
66189;SDS011;52992;52.084;5.412;2023-09-19T03:42:53;9.47;;;2.23;;
66189;SDS011;52992;52.084;5.412;2023-09-19T03:45:21;6.03;;;2.43;;
66189;SDS011;52992;52.084;5.412;2023-09-19T03:47:51;9.53;;;2.40;;
66189;SDS011;52992;52.084;5.412;2023-09-19T03:50:20;8.83;;;2.50;;
66189;SDS011;52992;52.084;5.412;2023-09-19T03:52:48;6.87;;;2.40;;
66189;SDS011;52992;52.084;5.412;2023-09-19T03:55:16;9.13;;;2.13;;
66189;SDS011;52992;52.084;5.412;2023-09-19T03:57:47;10.23;;;2.63;;
66189;SDS011;52992;52.084;5.412;2023-09-19T04:00:16;8.73;;;2.40;;
66189;SDS011;52992;52.084;5.412;2023-09-19T04:02:48;7.97;;;2.40;;
66189;SDS011;52992;52.084;5.412;2023-09-19T04:05:15;6.13;;;2.50;;
66189;SDS011;52992;52.084;5.412;2023-09-19T04:07:43;5.40;;;2.00;;
66189;SDS011;52992;52.084;5.412;2023-09-19T04:10:10;12.23;;;2.30;;
66189;SDS011;52992;52.084;5.412;2023-09-19T04:12:38;5.93;;;2.70;;
66189;SDS011;52992;52.084;5.412;2023-09-19T04:15:05;5.73;;;2.20;;
66189;SDS011;52992;52.084;5.412;2023-09-19T04:17:33;6.97;;;2.17;;
66189;SDS011;52992;52.084;5.412;2023-09-19T04:20:00;11.13;;;3.10;;
66189;SDS011;52992;52.084;5.412;2023-09-19T04:22:27;9.53;;;3.00;;
66189;SDS011;52992;52.084;5.412;2023-09-19T04:24:54;15.33;;;2.63;;
66189;SDS011;52992;52.084;5.412;2023-09-19T04:27:21;5.57;;;2.10;;
66189;SDS011;52992;52.084;5.412;2023-09-19T04:29:49;6.47;;;2.43;;
66189;SDS011;52992;52.084;5.412;2023-09-19T04:32:19;8.40;;;2.40;;
66189;SDS011;52992;52.084;5.412;2023-09-19T04:34:46;8.57;;;2.30;;
66189;SDS011;52992;52.084;5.412;2023-09-19T04:37:16;7.43;;;2.30;;
66189;SDS011;52992;52.084;5.412;2023-09-19T04:39:43;7.70;;;2.57;;
66189;SDS011;52992;52.084;5.412;2023-09-19T04:42:12;14.77;;;2.60;;
66189;SDS011;52992;52.084;5.412;2023-09-19T04:44:40;8.07;;;2.23;;
66189;SDS011;52992;52.084;5.412;2023-09-19T04:47:09;7.20;;;2.37;;
66189;SDS011;52992;52.084;5.412;2023-09-19T04:49:38;9.30;;;2.27;;
66189;SDS011;52992;52.084;5.412;2023-09-19T04:52:06;8.20;;;2.27;;
66189;SDS011;52992;52.084;5.412;2023-09-19T04:54:33;15.40;;;3.00;;
66189;SDS011;52992;52.084;5.412;2023-09-19T04:57:00;5.60;;;1.90;;
66189;SDS011;52992;52.084;5.412;2023-09-19T04:59:27;8.47;;;2.70;;
66189;SDS011;52992;52.084;5.412;2023-09-19T05:01:58;7.87;;;2.40;;
66189;SDS011;52992;52.084;5.412;2023-09-19T05:04:25;8.17;;;2.73;;
66189;SDS011;52992;52.084;5.412;2023-09-19T05:06:52;9.07;;;3.00;;
66189;SDS011;52992;52.084;5.412;2023-09-19T05:09:19;6.63;;;2.20;;
66189;SDS011;52992;52.084;5.412;2023-09-19T05:11:46;9.43;;;2.60;;
66189;SDS011;52992;52.084;5.412;2023-09-19T05:14:14;7.30;;;2.63;;
66189;SDS011;52992;52.084;5.412;2023-09-19T05:16:41;7.77;;;2.93;;
66189;SDS011;52992;52.084;5.412;2023-09-19T05:19:09;8.00;;;2.70;;
66189;SDS011;52992;52.084;5.412;2023-09-19T05:21:38;11.50;;;2.73;;
66189;SDS011;52992;52.084;5.412;2023-09-19T05:24:07;6.07;;;2.60;;
66189;SDS011;52992;52.084;5.412;2023-09-19T05:26:36;6.27;;;2.40;;
66189;SDS011;52992;52.084;5.412;2023-09-19T05:29:03;9.60;;;2.47;;
66189;SDS011;52992;52.084;5.412;2023-09-19T05:31:31;7.83;;;2.27;;
66189;SDS011;52992;52.084;5.412;2023-09-19T05:33:58;12.07;;;2.70;;
66189;SDS011;52992;52.084;5.412;2023-09-19T05:36:27;9.17;;;2.70;;
66189;SDS011;52992;52.084;5.412;2023-09-19T05:38:56;6.53;;;2.20;;
66189;SDS011;52992;52.084;5.412;2023-09-19T05:41:23;6.47;;;2.40;;
66189;SDS011;52992;52.084;5.412;2023-09-19T05:43:50;2.93;;;1.73;;
66189;SDS011;52992;52.084;5.412;2023-09-19T05:46:17;7.73;;;1.93;;
66189;SDS011;52992;52.084;5.412;2023-09-19T05:48:44;8.50;;;2.07;;
66189;SDS011;52992;52.084;5.412;2023-09-19T05:51:11;3.13;;;2.30;;
66189;SDS011;52992;52.084;5.412;2023-09-19T05:53:37;9.20;;;2.80;;
66189;SDS011;52992;52.084;5.412;2023-09-19T05:56:05;9.13;;;2.50;;
66189;SDS011;52992;52.084;5.412;2023-09-19T05:58:32;9.87;;;2.93;;
66189;SDS011;52992;52.084;5.412;2023-09-19T06:00:59;9.93;;;2.83;;
66189;SDS011;52992;52.084;5.412;2023-09-19T06:03:26;6.67;;;2.33;;
66189;SDS011;52992;52.084;5.412;2023-09-19T06:05:53;6.77;;;2.57;;
66189;SDS011;52992;52.084;5.412;2023-09-19T06:08:23;7.93;;;2.73;;
66189;SDS011;52992;52.084;5.412;2023-09-19T06:10:52;8.53;;;2.67;;
66189;SDS011;52992;52.084;5.412;2023-09-19T06:13:19;9.27;;;2.30;;
66189;SDS011;52992;52.084;5.412;2023-09-19T06:15:46;4.63;;;2.37;;
66189;SDS011;52992;52.084;5.412;2023-09-19T06:18:13;11.23;;;2.80;;
66189;SDS011;52992;52.084;5.412;2023-09-19T06:20:48;5.23;;;2.53;;
66189;SDS011;52992;52.084;5.412;2023-09-19T06:23:17;10.20;;;2.53;;
66189;SDS011;52992;52.084;5.412;2023-09-19T06:25:46;6.60;;;2.63;;
66189;SDS011;52992;52.084;5.412;2023-09-19T06:28:13;6.53;;;2.30;;
66189;SDS011;52992;52.084;5.412;2023-09-19T06:30:41;10.43;;;2.97;;
66189;SDS011;52992;52.084;5.412;2023-09-19T06:33:08;15.87;;;2.50;;
66189;SDS011;52992;52.084;5.412;2023-09-19T06:35:37;4.47;;;2.27;;
66189;SDS011;52992;52.084;5.412;2023-09-19T06:38:04;6.43;;;2.23;;
66189;SDS011;52992;52.084;5.412;2023-09-19T06:40:33;11.97;;;2.60;;
66189;SDS011;52992;52.084;5.412;2023-09-19T06:43:00;9.53;;;2.67;;
66189;SDS011;52992;52.084;5.412;2023-09-19T06:45:30;11.20;;;3.20;;
66189;SDS011;52992;52.084;5.412;2023-09-19T06:47:58;6.10;;;2.60;;
66189;SDS011;52992;52.084;5.412;2023-09-19T06:50:26;6.97;;;2.77;;
66189;SDS011;52992;52.084;5.412;2023-09-19T06:52:54;11.20;;;2.50;;
66189;SDS011;52992;52.084;5.412;2023-09-19T06:55:23;7.03;;;2.33;;
66189;SDS011;52992;52.084;5.412;2023-09-19T06:57:52;6.50;;;2.87;;
66189;SDS011;52992;52.084;5.412;2023-09-19T07:00:20;7.07;;;2.27;;
66189;SDS011;52992;52.084;5.412;2023-09-19T07:02:58;9.10;;;2.60;;
66189;SDS011;52992;52.084;5.412;2023-09-19T07:05:39;9.50;;;2.90;;
66189;SDS011;52992;52.084;5.412;2023-09-19T07:08:07;6.27;;;2.60;;
66189;SDS011;52992;52.084;5.412;2023-09-19T07:10:37;9.20;;;2.57;;
66189;SDS011;52992;52.084;5.412;2023-09-19T07:13:07;9.60;;;3.30;;
66189;SDS011;52992;52.084;5.412;2023-09-19T07:15:37;7.93;;;2.90;;
66189;SDS011;52992;52.084;5.412;2023-09-19T07:18:06;10.80;;;2.63;;
66189;SDS011;52992;52.084;5.412;2023-09-19T07:20:35;10.83;;;2.90;;
66189;SDS011;52992;52.084;5.412;2023-09-19T07:23:03;8.10;;;2.83;;
66189;SDS011;52992;52.084;5.412;2023-09-19T07:25:30;13.07;;;2.90;;
66189;SDS011;52992;52.084;5.412;2023-09-19T07:27:58;9.53;;;2.63;;
66189;SDS011;52992;52.084;5.412;2023-09-19T07:30:27;10.37;;;2.53;;
66189;SDS011;52992;52.084;5.412;2023-09-19T07:32:55;7.53;;;2.77;;
66189;SDS011;52992;52.084;5.412;2023-09-19T07:35:22;7.53;;;2.73;;
66189;SDS011;52992;52.084;5.412;2023-09-19T07:37:49;8.00;;;2.70;;
66189;SDS011;52992;52.084;5.412;2023-09-19T07:40:17;12.27;;;2.70;;
66189;SDS011;52992;52.084;5.412;2023-09-19T07:42:45;11.23;;;2.30;;
66189;SDS011;52992;52.084;5.412;2023-09-19T07:45:13;9.47;;;2.60;;
66189;SDS011;52992;52.084;5.412;2023-09-19T07:47:44;9.40;;;2.70;;
66189;SDS011;52992;52.084;5.412;2023-09-19T07:50:12;7.50;;;2.40;;
66189;SDS011;52992;52.084;5.412;2023-09-19T07:52:41;9.97;;;3.03;;
66189;SDS011;52992;52.084;5.412;2023-09-19T07:55:09;10.50;;;2.27;;
66189;SDS011;52992;52.084;5.412;2023-09-19T07:57:37;7.07;;;3.07;;
66189;SDS011;52992;52.084;5.412;2023-09-19T08:00:05;6.33;;;2.20;;
66189;SDS011;52992;52.084;5.412;2023-09-19T08:02:42;8.80;;;2.40;;
66189;SDS011;52992;52.084;5.412;2023-09-19T08:05:12;8.13;;;2.23;;
66189;SDS011;52992;52.084;5.412;2023-09-19T08:07:43;8.37;;;2.13;;
66189;SDS011;52992;52.084;5.412;2023-09-19T08:10:15;10.07;;;2.90;;
66189;SDS011;52992;52.084;5.412;2023-09-19T08:12:46;6.77;;;2.43;;
66189;SDS011;52992;52.084;5.412;2023-09-19T08:15:14;7.97;;;2.33;;
66189;SDS011;52992;52.084;5.412;2023-09-19T08:17:41;12.10;;;3.03;;
66189;SDS011;52992;52.084;5.412;2023-09-19T08:20:09;13.47;;;2.73;;
66189;SDS011;52992;52.084;5.412;2023-09-19T08:22:49;6.80;;;2.43;;
66189;SDS011;52992;52.084;5.412;2023-09-19T08:25:23;7.37;;;2.50;;
66189;SDS011;52992;52.084;5.412;2023-09-19T08:27:55;12.20;;;2.83;;
66189;SDS011;52992;52.084;5.412;2023-09-19T08:30:24;8.20;;;2.13;;
66189;SDS011;52992;52.084;5.412;2023-09-19T08:32:57;12.37;;;2.27;;
66189;SDS011;52992;52.084;5.412;2023-09-19T08:35:25;6.87;;;2.47;;
66189;SDS011;52992;52.084;5.412;2023-09-19T08:37:53;8.73;;;2.40;;
66189;SDS011;52992;52.084;5.412;2023-09-19T08:40:22;8.10;;;2.43;;
66189;SDS011;52992;52.084;5.412;2023-09-19T08:42:50;6.77;;;2.30;;
66189;SDS011;52992;52.084;5.412;2023-09-19T08:45:23;8.87;;;2.60;;
66189;SDS011;52992;52.084;5.412;2023-09-19T08:50:29;11.53;;;2.83;;
66189;SDS011;52992;52.084;5.412;2023-09-19T08:53:00;12.83;;;3.37;;
66189;SDS011;52992;52.084;5.412;2023-09-19T08:55:28;11.33;;;3.23;;
66189;SDS011;52992;52.084;5.412;2023-09-19T08:57:59;8.27;;;2.97;;
66189;SDS011;52992;52.084;5.412;2023-09-19T09:00:37;9.10;;;2.47;;
66189;SDS011;52992;52.084;5.412;2023-09-19T09:03:09;12.43;;;2.93;;
66189;SDS011;52992;52.084;5.412;2023-09-19T09:05:38;12.30;;;2.77;;
66189;SDS011;52992;52.084;5.412;2023-09-19T09:08:10;10.57;;;2.57;;
66189;SDS011;52992;52.084;5.412;2023-09-19T09:10:37;10.27;;;2.70;;
66189;SDS011;52992;52.084;5.412;2023-09-19T09:13:07;8.87;;;2.80;;
66189;SDS011;52992;52.084;5.412;2023-09-19T09:15:35;11.93;;;2.63;;
66189;SDS011;52992;52.084;5.412;2023-09-19T09:18:03;6.03;;;2.23;;
66189;SDS011;52992;52.084;5.412;2023-09-19T09:20:31;6.87;;;2.03;;
66189;SDS011;52992;52.084;5.412;2023-09-19T09:22:58;5.63;;;2.07;;
66189;SDS011;52992;52.084;5.412;2023-09-19T09:28:15;8.47;;;2.80;;
66189;SDS011;52992;52.084;5.412;2023-09-19T09:30:55;9.03;;;2.70;;
66189;SDS011;52992;52.084;5.412;2023-09-19T09:33:23;8.30;;;2.50;;
66189;SDS011;52992;52.084;5.412;2023-09-19T09:35:55;7.67;;;1.87;;
66189;SDS011;52992;52.084;5.412;2023-09-19T09:38:27;10.60;;;2.50;;
66189;SDS011;52992;52.084;5.412;2023-09-19T09:40:59;7.20;;;2.20;;
66189;SDS011;52992;52.084;5.412;2023-09-19T09:43:33;11.80;;;2.43;;
66189;SDS011;52992;52.084;5.412;2023-09-19T09:46:07;11.43;;;2.90;;
66189;SDS011;52992;52.084;5.412;2023-09-19T09:49:02;7.83;;;2.50;;
66189;SDS011;52992;52.084;5.412;2023-09-19T09:54:37;10.37;;;2.20;;
66189;SDS011;52992;52.084;5.412;2023-09-19T09:57:05;8.50;;;2.37;;
66189;SDS011;52992;52.084;5.412;2023-09-19T09:59:50;8.93;;;2.87;;
66189;SDS011;52992;52.084;5.412;2023-09-19T10:02:26;9.70;;;2.37;;
66189;SDS011;52992;52.084;5.412;2023-09-19T10:05:10;10.97;;;2.60;;
66189;SDS011;52992;52.084;5.412;2023-09-19T10:07:48;10.70;;;2.70;;
66189;SDS011;52992;52.084;5.412;2023-09-19T10:10:36;6.63;;;2.33;;
66189;SDS011;52992;52.084;5.412;2023-09-19T10:13:11;9.23;;;2.17;;
66189;SDS011;52992;52.084;5.412;2023-09-19T10:15:42;5.77;;;2.27;;
66189;SDS011;52992;52.084;5.412;2023-09-19T10:18:24;6.20;;;2.03;;
66189;SDS011;52992;52.084;5.412;2023-09-19T10:20:54;5.87;;;1.73;;
66189;SDS011;52992;52.084;5.412;2023-09-19T10:23:22;7.87;;;1.60;;
66189;SDS011;52992;52.084;5.412;2023-09-19T10:25:52;8.20;;;2.33;;
66189;SDS011;52992;52.084;5.412;2023-09-19T10:28:20;6.37;;;1.93;;
66189;SDS011;52992;52.084;5.412;2023-09-19T10:30:49;6.47;;;2.10;;
66189;SDS011;52992;52.084;5.412;2023-09-19T10:33:18;8.80;;;2.60;;
66189;SDS011;52992;52.084;5.412;2023-09-19T10:35:50;8.67;;;1.97;;
66189;SDS011;52992;52.084;5.412;2023-09-19T10:38:18;4.60;;;2.30;;
66189;SDS011;52992;52.084;5.412;2023-09-19T10:40:49;5.83;;;2.60;;
66189;SDS011;52992;52.084;5.412;2023-09-19T10:43:19;5.27;;;2.27;;
66189;SDS011;52992;52.084;5.412;2023-09-19T10:45:49;7.87;;;3.20;;
66189;SDS011;52992;52.084;5.412;2023-09-19T10:48:19;4.00;;;2.17;;
66189;SDS011;52992;52.084;5.412;2023-09-19T10:51:05;7.40;;;2.23;;
66189;SDS011;52992;52.084;5.412;2023-09-19T10:56:24;7.00;;;1.93;;
66189;SDS011;52992;52.084;5.412;2023-09-19T10:59:11;7.27;;;2.40;;
66189;SDS011;52992;52.084;5.412;2023-09-19T11:09:56;5.60;;;2.33;;
66189;SDS011;52992;52.084;5.412;2023-09-19T11:15:02;6.33;;;2.33;;
66189;SDS011;52992;52.084;5.412;2023-09-19T11:17:40;6.63;;;2.37;;
66189;SDS011;52992;52.084;5.412;2023-09-19T11:30:38;6.83;;;2.30;;
66189;SDS011;52992;52.084;5.412;2023-09-19T11:46:21;4.93;;;2.10;;
66189;SDS011;52992;52.084;5.412;2023-09-19T11:48:48;5.73;;;2.17;;
66189;SDS011;52992;52.084;5.412;2023-09-19T11:51:20;4.13;;;1.70;;
66189;SDS011;52992;52.084;5.412;2023-09-19T11:53:50;9.43;;;2.03;;
66189;SDS011;52992;52.084;5.412;2023-09-19T11:56:18;4.27;;;1.60;;
66189;SDS011;52992;52.084;5.412;2023-09-19T11:58:51;3.93;;;1.77;;
66189;SDS011;52992;52.084;5.412;2023-09-19T12:01:22;1.87;;;1.20;;
66189;SDS011;52992;52.084;5.412;2023-09-19T12:03:57;4.47;;;1.40;;
66189;SDS011;52992;52.084;5.412;2023-09-19T12:06:26;4.83;;;1.53;;
66189;SDS011;52992;52.084;5.412;2023-09-19T12:08:56;4.27;;;1.20;;
66189;SDS011;52992;52.084;5.412;2023-09-19T12:11:29;6.20;;;1.57;;
66189;SDS011;52992;52.084;5.412;2023-09-19T12:14:02;1.97;;;1.00;;
66189;SDS011;52992;52.084;5.412;2023-09-19T12:16:31;4.50;;;1.40;;
66189;SDS011;52992;52.084;5.412;2023-09-19T12:19:17;5.30;;;1.47;;
66189;SDS011;52992;52.084;5.412;2023-09-19T12:21:54;3.83;;;1.40;;
66189;SDS011;52992;52.084;5.412;2023-09-19T12:24:26;4.57;;;1.23;;
66189;SDS011;52992;52.084;5.412;2023-09-19T12:27:00;3.37;;;1.30;;
66189;SDS011;52992;52.084;5.412;2023-09-19T12:29:31;5.33;;;1.23;;
66189;SDS011;52992;52.084;5.412;2023-09-19T12:32:07;5.07;;;1.73;;
66189;SDS011;52992;52.084;5.412;2023-09-19T12:34:35;4.60;;;1.90;;
66189;SDS011;52992;52.084;5.412;2023-09-19T12:37:10;5.50;;;1.63;;
66189;SDS011;52992;52.084;5.412;2023-09-19T12:39:39;5.63;;;1.60;;
66189;SDS011;52992;52.084;5.412;2023-09-19T12:42:15;9.53;;;1.43;;
66189;SDS011;52992;52.084;5.412;2023-09-19T12:44:44;6.70;;;1.80;;
66189;SDS011;52992;52.084;5.412;2023-09-19T12:47:17;4.80;;;1.53;;
66189;SDS011;52992;52.084;5.412;2023-09-19T12:50:10;2.63;;;1.57;;
66189;SDS011;52992;52.084;5.412;2023-09-19T12:52:48;4.53;;;1.60;;
66189;SDS011;52992;52.084;5.412;2023-09-19T12:55:26;2.40;;;1.50;;
66189;SDS011;52992;52.084;5.412;2023-09-19T12:58:12;3.00;;;1.73;;
66189;SDS011;52992;52.084;5.412;2023-09-19T13:00:42;3.80;;;1.20;;
66189;SDS011;52992;52.084;5.412;2023-09-19T13:05:49;3.33;;;1.43;;
66189;SDS011;52992;52.084;5.412;2023-09-19T13:08:17;4.23;;;1.13;;
66189;SDS011;52992;52.084;5.412;2023-09-19T13:13:41;8.60;;;1.87;;
66189;SDS011;52992;52.084;5.412;2023-09-19T13:16:16;3.93;;;1.33;;
66189;SDS011;52992;52.084;5.412;2023-09-19T13:18:50;2.80;;;1.50;;
66189;SDS011;52992;52.084;5.412;2023-09-19T13:21:29;5.83;;;1.50;;
66189;SDS011;52992;52.084;5.412;2023-09-19T13:24:20;4.23;;;1.33;;
66189;SDS011;52992;52.084;5.412;2023-09-19T13:26:49;4.07;;;1.40;;
66189;SDS011;52992;52.084;5.412;2023-09-19T13:29:16;4.43;;;1.53;;
66189;SDS011;52992;52.084;5.412;2023-09-19T13:31:45;2.30;;;1.37;;
66189;SDS011;52992;52.084;5.412;2023-09-19T13:34:16;3.00;;;1.00;;
66189;SDS011;52992;52.084;5.412;2023-09-19T13:36:44;2.43;;;1.77;;
66189;SDS011;52992;52.084;5.412;2023-09-19T13:39:11;2.57;;;1.77;;
66189;SDS011;52992;52.084;5.412;2023-09-19T13:41:44;4.57;;;1.80;;
66189;SDS011;52992;52.084;5.412;2023-09-19T13:44:13;3.50;;;1.80;;
66189;SDS011;52992;52.084;5.412;2023-09-19T13:46:41;2.50;;;1.50;;
66189;SDS011;52992;52.084;5.412;2023-09-19T13:49:12;2.87;;;1.10;;
66189;SDS011;52992;52.084;5.412;2023-09-19T13:51:39;3.03;;;1.67;;
66189;SDS011;52992;52.084;5.412;2023-09-19T13:54:10;2.10;;;1.23;;
66189;SDS011;52992;52.084;5.412;2023-09-19T13:56:38;2.87;;;1.67;;
66189;SDS011;52992;52.084;5.412;2023-09-19T13:59:06;2.07;;;1.40;;
66189;SDS011;52992;52.084;5.412;2023-09-19T14:01:32;3.30;;;1.20;;
66189;SDS011;52992;52.084;5.412;2023-09-19T14:03:59;2.73;;;1.30;;
66189;SDS011;52992;52.084;5.412;2023-09-19T14:06:26;1.73;;;1.07;;
66189;SDS011;52992;52.084;5.412;2023-09-19T14:08:53;1.43;;;1.13;;
66189;SDS011;52992;52.084;5.412;2023-09-19T14:11:20;5.83;;;1.60;;
66189;SDS011;52992;52.084;5.412;2023-09-19T14:13:47;2.23;;;1.00;;
66189;SDS011;52992;52.084;5.412;2023-09-19T14:16:16;4.40;;;1.13;;
66189;SDS011;52992;52.084;5.412;2023-09-19T14:18:45;2.13;;;0.83;;
66189;SDS011;52992;52.084;5.412;2023-09-19T14:21:12;5.33;;;2.00;;
66189;SDS011;52992;52.084;5.412;2023-09-19T14:23:41;6.80;;;1.83;;
66189;SDS011;52992;52.084;5.412;2023-09-19T14:26:09;4.40;;;1.60;;
66189;SDS011;52992;52.084;5.412;2023-09-19T14:28:37;3.27;;;1.53;;
66189;SDS011;52992;52.084;5.412;2023-09-19T14:31:09;3.90;;;1.60;;
66189;SDS011;52992;52.084;5.412;2023-09-19T14:33:37;5.10;;;1.60;;
66189;SDS011;52992;52.084;5.412;2023-09-19T14:36:05;3.33;;;1.50;;
66189;SDS011;52992;52.084;5.412;2023-09-19T14:38:37;3.30;;;1.20;;
66189;SDS011;52992;52.084;5.412;2023-09-19T14:41:05;2.77;;;1.50;;
66189;SDS011;52992;52.084;5.412;2023-09-19T14:43:33;3.13;;;1.50;;
66189;SDS011;52992;52.084;5.412;2023-09-19T14:46:03;3.40;;;1.90;;
66189;SDS011;52992;52.084;5.412;2023-09-19T14:48:31;4.10;;;1.70;;
66189;SDS011;52992;52.084;5.412;2023-09-19T14:51:04;1.80;;;1.30;;
66189;SDS011;52992;52.084;5.412;2023-09-19T14:53:35;3.70;;;1.93;;
66189;SDS011;52992;52.084;5.412;2023-09-19T14:56:07;4.33;;;1.53;;
66189;SDS011;52992;52.084;5.412;2023-09-19T14:58:35;4.97;;;2.10;;
66189;SDS011;52992;52.084;5.412;2023-09-19T15:01:06;3.40;;;1.53;;
66189;SDS011;52992;52.084;5.412;2023-09-19T15:03:37;4.63;;;1.63;;
66189;SDS011;52992;52.084;5.412;2023-09-19T15:06:07;7.53;;;1.83;;
66189;SDS011;52992;52.084;5.412;2023-09-19T15:08:36;2.63;;;1.83;;
66189;SDS011;52992;52.084;5.412;2023-09-19T15:11:07;5.93;;;2.07;;
66189;SDS011;52992;52.084;5.412;2023-09-19T15:13:34;5.23;;;1.70;;
66189;SDS011;52992;52.084;5.412;2023-09-19T15:16:02;3.20;;;1.80;;
66189;SDS011;52992;52.084;5.412;2023-09-19T15:18:31;5.03;;;2.30;;
66189;SDS011;52992;52.084;5.412;2023-09-19T15:21:00;7.50;;;2.17;;
66189;SDS011;52992;52.084;5.412;2023-09-19T15:23:27;5.23;;;2.03;;
66189;SDS011;52992;52.084;5.412;2023-09-19T15:25:58;4.87;;;1.93;;
66189;SDS011;52992;52.084;5.412;2023-09-19T15:28:25;2.50;;;1.60;;
66189;SDS011;52992;52.084;5.412;2023-09-19T15:30:59;4.40;;;2.03;;
66189;SDS011;52992;52.084;5.412;2023-09-19T15:33:34;4.83;;;2.00;;
66189;SDS011;52992;52.084;5.412;2023-09-19T15:36:02;5.60;;;1.77;;
66189;SDS011;52992;52.084;5.412;2023-09-19T15:42:39;3.47;;;2.27;;
66189;SDS011;52992;52.084;5.412;2023-09-19T15:45:07;2.83;;;1.80;;
66189;SDS011;52992;52.084;5.412;2023-09-19T15:47:36;4.73;;;1.87;;
66189;SDS011;52992;52.084;5.412;2023-09-19T15:50:04;6.23;;;2.40;;
66189;SDS011;52992;52.084;5.412;2023-09-19T15:52:31;2.10;;;1.77;;
66189;SDS011;52992;52.084;5.412;2023-09-19T15:54:58;2.93;;;1.67;;
66189;SDS011;52992;52.084;5.412;2023-09-19T15:57:25;6.30;;;2.20;;
66189;SDS011;52992;52.084;5.412;2023-09-19T16:04:05;5.10;;;2.17;;
66189;SDS011;52992;52.084;5.412;2023-09-19T16:06:35;3.97;;;2.03;;
66189;SDS011;52992;52.084;5.412;2023-09-19T16:09:04;4.13;;;1.93;;
66189;SDS011;52992;52.084;5.412;2023-09-19T16:11:32;3.27;;;2.00;;
66189;SDS011;52992;52.084;5.412;2023-09-19T16:14:00;4.47;;;2.03;;